Time;durP1;ratioP1;P1;durP2;ratioP2;P2;SDS_P1;SDS_P2;PMS_P1;PMS_P2;Temp;Humidity;BMP_temperature;BMP_pressure;BME280_temperature;BME280_humidity;BME280_pressure;Samples;Min_cycle;Max_cycle;Signal;HPM_P1;HPM_P2
2021/01/03 00:01:25;;;;;;;19.60;9.82;;;;;12.20;101362.00;;;;5010307;28;20586;-77
2021/01/03 00:03:52;;;;;;;19.55;8.90;;;;;12.20;101358.00;;;;5007854;28;20193;-77
2021/01/03 00:06:19;;;;;;;18.23;8.90;;;;;12.20;101358.00;;;;5010306;28;20197;-77
2021/01/03 00:08:46;;;;;;;17.48;9.75;;;;;12.20;101355.00;;;;5009725;28;20205;-77
2021/01/03 00:11:12;;;;;;;20.90;9.20;;;;;12.20;101359.00;;;;5009771;28;20761;-77
2021/01/03 00:13:39;;;;;;;19.75;7.75;;;;;12.20;101360.00;;;;5009302;28;20606;-77
2021/01/03 00:16:06;;;;;;;17.27;8.60;;;;;12.20;101360.00;;;;5009964;28;20208;-77
2021/01/03 00:18:33;;;;;;;13.02;6.90;;;;;12.20;101365.00;;;;5009465;28;20212;-77
2021/01/03 00:21:01;;;;;;;21.00;9.02;;;;;12.10;101363.00;;;;4993198;28;20198;-77
2021/01/03 00:23:28;;;;;;;14.25;6.88;;;;;12.10;101361.00;;;;4994578;28;20196;-77
2021/01/03 00:25:55;;;;;;;19.52;8.95;;;;;12.10;101364.00;;;;5009307;28;20280;-77
2021/01/03 00:28:22;;;;;;;23.15;9.27;;;;;12.10;101360.00;;;;5010366;28;20205;-77
2021/01/03 00:30:49;;;;;;;21.23;9.10;;;;;12.10;101359.00;;;;4995145;28;20217;-77
2021/01/03 00:33:16;;;;;;;20.27;8.50;;;;;12.10;101351.00;;;;4993877;28;20233;-77
2021/01/03 00:35:43;;;;;;;17.70;9.02;;;;;12.00;101360.00;;;;5009353;28;20896;-77
2021/01/03 00:38:12;;;;;;;19.08;8.02;;;;;12.00;101358.00;;;;5010428;28;20204;-77
2021/01/03 00:40:39;;;;;;;16.05;7.68;;;;;12.00;101368.00;;;;5009470;28;20251;-78
2021/01/03 00:43:07;;;;;;;16.23;7.72;;;;;12.00;101357.00;;;;5009394;28;20205;-77
2021/01/03 00:45:34;;;;;;;14.77;6.75;;;;;12.00;101361.00;;;;5007576;28;20251;-77
2021/01/03 00:48:01;;;;;;;14.93;7.03;;;;;12.00;101349.00;;;;4995675;28;20209;-77
2021/01/03 00:50:29;;;;;;;12.80;6.53;;;;;11.90;101359.00;;;;5009275;28;20189;-77
2021/01/03 00:52:56;;;;;;;14.90;6.43;;;;;11.90;101363.00;;;;5009904;28;20251;-77
2021/01/03 00:55:24;;;;;;;16.40;7.30;;;;;11.90;101364.00;;;;5009518;28;20205;-77
2021/01/03 00:57:51;;;;;;;14.70;7.00;;;;;11.90;101360.00;;;;5009207;28;20228;-77
2021/01/03 01:00:21;;;;;;;13.63;6.75;;;;;11.80;101361.00;;;;5008419;28;20206;-77
2021/01/03 01:02:48;;;;;;;14.13;6.50;;;;;11.80;101357.00;;;;5009629;28;20201;-77
2021/01/03 01:05:16;;;;;;;13.52;6.85;;;;;11.80;101356.00;;;;5003206;28;20205;-77
2021/01/03 01:07:43;;;;;;;14.32;7.18;;;;;11.80;101359.00;;;;5006776;28;20201;-77
2021/01/03 01:10:13;;;;;;;17.05;6.90;;;;;11.80;101357.00;;;;5009358;28;20193;-77
2021/01/03 01:12:40;;;;;;;11.52;5.55;;;;;11.80;101357.00;;;;5008695;28;20221;-77
2021/01/03 01:15:17;;;;;;;12.20;6.00;;;;;11.70;101357.00;;;;5001166;28;20223;-77
2021/01/03 01:17:44;;;;;;;14.18;6.95;;;;;11.70;101349.00;;;;5008748;28;20235;-78
2021/01/03 01:20:12;;;;;;;11.88;6.22;;;;;11.70;101355.00;;;;4990879;28;20472;-77
2021/01/03 01:22:39;;;;;;;11.93;6.50;;;;;11.70;101364.00;;;;5002602;28;20670;-77
2021/01/03 01:25:07;;;;;;;15.10;7.30;;;;;11.70;101365.00;;;;5004763;28;20208;-77
2021/01/03 01:27:34;;;;;;;14.13;6.50;;;;;11.70;101365.00;;;;5008993;28;20204;-77
2021/01/03 01:30:03;;;;;;;13.77;6.75;;;;;11.70;101364.00;;;;5009522;28;20235;-77
2021/01/03 01:32:29;;;;;;;12.90;6.85;;;;;11.70;101367.00;;;;5008433;28;20299;-77
2021/01/03 01:34:56;;;;;;;15.25;6.40;;;;;11.70;101363.00;;;;5008329;28;20209;-77
2021/01/03 01:37:23;;;;;;;13.95;6.32;;;;;11.70;101364.00;;;;5009038;28;20200;-77
2021/01/03 01:39:50;;;;;;;14.10;6.55;;;;;11.70;101364.00;;;;5009105;28;20200;-77
2021/01/03 01:42:17;;;;;;;14.13;7.07;;;;;11.70;101358.00;;;;5008958;28;20201;-77
2021/01/03 01:44:44;;;;;;;16.23;7.35;;;;;11.70;101360.00;;;;5008186;28;20207;-77
2021/01/03 01:47:19;;;;;;;15.93;7.07;;;;;11.60;101363.00;;;;5008380;28;20201;-77
2021/01/03 01:49:46;;;;;;;15.05;7.60;;;;;11.60;101352.00;;;;5000588;28;20200;-77
2021/01/03 01:52:16;;;;;;;14.88;7.05;;;;;11.60;101364.00;;;;5008272;28;20209;-77
2021/01/03 01:54:47;;;;;;;19.60;7.45;;;;;11.60;101362.00;;;;5006280;28;20193;-77
2021/01/03 01:57:21;;;;;;;16.55;7.30;;;;;11.60;101357.00;;;;5007130;28;20236;-77
2021/01/03 01:59:56;;;;;;;12.85;6.55;;;;;11.60;101364.00;;;;5007678;28;21168;-77
2021/01/03 02:02:30;;;;;;;13.65;7.57;;;;;11.60;101366.00;;;;5008086;28;20197;-77
2021/01/03 02:05:02;;;;;;;15.45;6.68;;;;;11.60;101358.00;;;;5007459;28;20196;-77
2021/01/03 02:07:33;;;;;;;16.95;8.05;;;;;11.60;101362.00;;;;5007855;28;20213;-77
2021/01/03 02:10:15;;;;;;;13.85;6.97;;;;;11.50;101367.00;;;;5007153;28;20208;-77
2021/01/03 02:12:45;;;;;;;16.00;7.45;;;;;11.50;101363.00;;;;5005588;28;20233;-77
2021/01/03 02:15:13;;;;;;;17.08;7.82;;;;;11.60;101360.00;;;;5007561;28;20200;-77
2021/01/03 02:17:44;;;;;;;14.75;6.88;;;;;11.50;101363.00;;;;5003808;28;20204;-77
2021/01/03 02:20:12;;;;;;;16.67;7.13;;;;;11.60;101371.00;;;;5006965;28;20210;-77
2021/01/03 02:22:42;;;;;;;15.10;7.22;;;;;11.50;101355.00;;;;5008299;28;20242;-77
2021/01/03 02:25:13;;;;;;;18.13;7.97;;;;;11.50;101361.00;;;;5006865;28;20196;-77
2021/01/03 02:27:47;;;;;;;18.00;8.85;;;;;11.50;101367.00;;;;5007977;28;20193;-77
2021/01/03 02:30:17;;;;;;;14.00;6.85;;;;;11.50;101361.00;;;;4999263;28;20200;-77
2021/01/03 02:32:48;;;;;;;15.30;6.93;;;;;11.50;101352.00;;;;5011088;28;20220;-77
2021/01/03 02:35:17;;;;;;;15.38;7.85;;;;;11.50;101359.00;;;;5011713;28;20193;-77
2021/01/03 02:37:47;;;;;;;16.20;7.30;;;;;11.50;101361.00;;;;5012111;28;20197;-77
2021/01/03 02:40:18;;;;;;;14.45;7.05;;;;;11.50;101361.00;;;;5012169;28;20193;-77
2021/01/03 02:42:45;;;;;;;12.98;6.28;;;;;11.50;101362.00;;;;5011666;28;20797;-77
2021/01/03 02:45:15;;;;;;;15.82;6.93;;;;;11.50;101364.00;;;;5009218;28;20197;-78
2021/01/03 02:47:43;;;;;;;16.20;7.55;;;;;11.50;101364.00;;;;5005832;28;20193;-77
2021/01/03 02:50:12;;;;;;;15.43;7.82;;;;;11.50;101369.00;;;;5005292;28;20201;-77
2021/01/03 02:52:41;;;;;;;15.30;7.07;;;;;11.50;101366.00;;;;5011717;28;20229;-77
2021/01/03 02:55:10;;;;;;;19.70;7.93;;;;;11.50;101371.00;;;;5006124;28;20201;-77
2021/01/03 02:57:38;;;;;;;17.35;7.70;;;;;11.50;101357.00;;;;5011090;28;20224;-77
2021/01/03 03:00:06;;;;;;;16.27;7.70;;;;;11.50;101365.00;;;;5006998;28;20552;-77
2021/01/03 03:02:33;;;;;;;16.02;6.95;;;;;11.50;101357.00;;;;5011110;28;20209;-77
2021/01/03 03:05:00;;;;;;;16.00;7.70;;;;;11.50;101359.00;;;;5003022;28;20626;-77
2021/01/03 03:07:27;;;;;;;17.48;7.70;;;;;11.50;101360.00;;;;5011165;28;20247;-77
2021/01/03 03:09:53;;;;;;;16.73;6.72;;;;;11.50;101356.00;;;;5010492;28;20266;-77
2021/01/03 03:12:20;;;;;;;15.55;7.07;;;;;11.40;101360.00;;;;5010777;28;20201;-77
2021/01/03 03:14:48;;;;;;;14.25;6.60;;;;;11.40;101357.00;;;;5010969;28;20193;-77
2021/01/03 03:17:14;;;;;;;15.55;6.72;;;;;11.40;101348.00;;;;5008753;28;20204;-77
2021/01/03 03:19:41;;;;;;;18.40;8.20;;;;;11.40;101349.00;;;;5004063;28;20204;-77
2021/01/03 03:22:08;;;;;;;14.20;6.68;;;;;11.40;101352.00;;;;5009473;28;20200;-78
2021/01/03 03:24:35;;;;;;;15.65;7.18;;;;;11.40;101357.00;;;;5010949;28;20201;-77
2021/01/03 03:27:04;;;;;;;16.65;7.65;;;;;11.40;101356.00;;;;4992118;28;21107;-77
2021/01/03 03:29:31;;;;;;;13.35;6.88;;;;;11.40;101359.00;;;;5010158;28;20197;-77
2021/01/03 03:31:59;;;;;;;17.08;7.80;;;;;11.30;101358.00;;;;5009909;28;20204;-77
2021/01/03 03:34:26;;;;;;;19.63;7.47;;;;;11.30;101346.00;;;;5010418;28;20229;-77
2021/01/03 03:36:54;;;;;;;16.67;7.95;;;;;11.30;101361.00;;;;5009358;28;20642;-77
2021/01/03 03:39:21;;;;;;;18.17;8.40;;;;;11.30;101363.00;;;;5010341;28;20213;-77
2021/01/03 03:41:48;;;;;;;15.82;6.55;;;;;11.30;101358.00;;;;5010031;28;20201;-77
2021/01/03 03:44:15;;;;;;;18.98;8.82;;;;;11.30;101359.00;;;;5007474;28;20205;-77
2021/01/03 03:46:42;;;;;;;20.15;7.60;;;;;11.30;101356.00;;;;5009476;28;20205;-77
2021/01/03 03:49:10;;;;;;;15.77;7.38;;;;;11.30;101357.00;;;;5007328;28;20192;-77
2021/01/03 03:51:36;;;;;;;17.00;7.50;;;;;11.30;101345.00;;;;5005770;28;20207;-77
2021/01/03 03:54:04;;;;;;;13.60;6.40;;;;;11.30;101352.00;;;;5009342;28;20232;-77
2021/01/03 03:56:30;;;;;;;16.33;7.75;;;;;11.30;101347.00;;;;5009949;28;20582;-77
2021/01/03 03:58:57;;;;;;;16.35;6.88;;;;;11.30;101362.00;;;;5009860;28;20236;-77
2021/01/03 04:01:24;;;;;;;15.57;6.47;;;;;11.30;101346.00;;;;4994150;28;20244;-77
2021/01/03 04:03:50;;;;;;;14.85;6.45;;;;;11.30;101344.00;;;;5003052;28;20197;-77
2021/01/03 04:06:26;;;;;;;17.83;7.65;;;;;11.20;101339.00;;;;5010645;28;20193;-77
2021/01/03 04:08:53;;;;;;;19.88;8.15;;;;;11.20;101342.00;;;;5009240;28;20613;-77
2021/01/03 04:11:19;;;;;;;18.08;7.55;;;;;11.20;101340.00;;;;5002292;28;20204;-77
2021/01/03 04:13:46;;;;;;;17.50;7.70;;;;;11.20;101343.00;;;;5009690;28;20654;-77
2021/01/03 04:16:13;;;;;;;15.88;6.80;;;;;11.10;101349.00;;;;5009861;28;20197;-77
2021/01/03 04:18:40;;;;;;;16.65;7.32;;;;;11.10;101357.00;;;;5005052;28;20586;-77
2021/01/03 04:21:06;;;;;;;14.25;6.35;;;;;11.10;101347.00;;;;5008381;28;20204;-77
2021/01/03 04:23:34;;;;;;;16.55;7.28;;;;;11.10;101356.00;;;;5009953;28;20193;-77
2021/01/03 04:26:01;;;;;;;14.57;6.82;;;;;11.10;101351.00;;;;5009921;28;20201;-77
2021/01/03 04:28:27;;;;;;;15.82;6.80;;;;;11.10;101357.00;;;;5008499;28;20242;-77
2021/01/03 04:30:54;;;;;;;16.58;7.75;;;;;11.00;101351.00;;;;5009249;28;20197;-77
2021/01/03 04:33:21;;;;;;;15.15;6.75;;;;;11.00;101352.00;;;;5009551;28;20776;-77
2021/01/03 04:35:48;;;;;;;14.50;7.07;;;;;11.00;101364.00;;;;5001493;28;20196;-77
2021/01/03 04:38:15;;;;;;;16.17;6.90;;;;;11.00;101359.00;;;;5009208;28;20200;-77
2021/01/03 04:40:43;;;;;;;15.50;7.07;;;;;10.90;101362.00;;;;5009241;28;20193;-77
2021/01/03 04:43:21;;;;;;;13.75;7.07;;;;;10.80;101370.00;;;;5008703;28;20197;-77
2021/01/03 04:45:48;;;;;;;16.20;7.93;;;;;10.90;101366.00;;;;5008556;28;20193;-77
2021/01/03 04:48:22;;;;;;;17.48;7.35;;;;;10.90;101365.00;;;;5009110;28;20201;-77
2021/01/03 04:51:02;;;;;;;16.65;7.18;;;;;10.80;101366.00;;;;5009086;28;20255;-77
2021/01/03 04:53:43;;;;;;;14.25;7.22;;;;;10.80;101369.00;;;;5008762;28;20709;-77
2021/01/03 04:56:19;;;;;;;14.82;7.30;;;;;10.80;101363.00;;;;5008098;28;20204;-78
2021/01/03 04:58:59;;;;;;;17.85;8.00;;;;;10.80;101359.00;;;;5001697;28;20220;-77
2021/01/03 05:01:59;;;;;;;15.45;7.05;;;;;10.80;101368.00;;;;4995041;28;20209;-77
2021/01/03 05:04:46;;;;;;;16.15;7.22;;;;;10.80;101361.00;;;;5003350;28;20205;-77
2021/01/03 05:07:17;;;;;;;12.77;6.45;;;;;10.80;101359.00;;;;5009150;28;20192;-77
2021/01/03 05:09:45;;;;;;;17.17;7.60;;;;;10.80;101363.00;;;;5000571;28;20204;-77
2021/01/03 05:12:21;;;;;;;15.57;7.60;;;;;10.80;101368.00;;;;5004314;28;20205;-77
2021/01/03 05:14:53;;;;;;;14.45;6.32;;;;;10.80;101363.00;;;;5008546;28;20196;-77
2021/01/03 05:17:20;;;;;;;14.27;7.18;;;;;10.80;101363.00;;;;5008335;28;20193;-77
2021/01/03 05:19:47;;;;;;;15.60;7.20;;;;;10.80;101366.00;;;;5000246;28;20202;-77
2021/01/03 05:22:29;;;;;;;15.65;7.82;;;;;10.70;101363.00;;;;5004562;28;20197;-77
2021/01/03 05:24:58;;;;;;;16.27;8.07;;;;;10.80;101363.00;;;;5008278;28;20666;-77
2021/01/03 05:27:27;;;;;;;16.20;7.38;;;;;10.70;101370.00;;;;5008018;28;20224;-77
2021/01/03 05:29:53;;;;;;;15.13;7.43;;;;;10.70;101374.00;;;;5009036;28;20208;-77
2021/01/03 05:32:32;;;;;;;16.00;7.63;;;;;10.70;101370.00;;;;5007815;28;20558;-76
2021/01/03 05:35:00;;;;;;;13.65;7.57;;;;;10.70;101369.00;;;;5007024;28;20288;-77
2021/01/03 05:37:31;;;;;;;14.60;7.38;;;;;10.70;101373.00;;;;4995761;28;20215;-77
2021/01/03 05:39:58;;;;;;;18.52;8.70;;;;;10.70;101376.00;;;;5001424;28;20189;-77
2021/01/03 05:42:37;;;;;;;15.35;8.05;;;;;10.60;101385.00;;;;5008021;28;20585;-77
2021/01/03 05:45:08;;;;;;;18.75;8.27;;;;;10.60;101376.00;;;;5007568;28;20192;-78
2021/01/03 05:47:37;;;;;;;19.17;8.82;;;;;10.60;101380.00;;;;4989224;28;20194;-77
2021/01/03 05:50:14;;;;;;;15.23;7.00;;;;;10.60;101387.00;;;;5005902;28;20201;-77
2021/01/03 05:52:50;;;;;;;15.50;7.15;;;;;10.60;101383.00;;;;4995096;28;20204;-77
2021/01/03 05:55:24;;;;;;;17.90;7.57;;;;;10.60;101386.00;;;;5008050;28;20460;-77
2021/01/03 05:58:05;;;;;;;19.20;7.55;;;;;10.50;101390.00;;;;5005745;28;20610;-77
2021/01/03 06:00:32;;;;;;;17.02;7.78;;;;;10.60;101393.00;;;;5008153;28;20256;-77
2021/01/03 06:03:21;;;;;;;15.70;7.80;;;;;10.50;101396.00;;;;5006941;28;20197;-77
2021/01/03 06:05:50;;;;;;;16.85;8.18;;;;;10.60;101399.00;;;;4998594;28;20251;-77
2021/01/03 06:08:22;;;;;;;20.75;7.88;;;;;10.60;101400.00;;;;5014002;28;20192;-77
2021/01/03 06:10:49;;;;;;;16.00;8.20;;;;;10.60;101406.00;;;;5014119;28;20220;-77
2021/01/03 06:13:20;;;;;;;16.90;7.40;;;;;10.60;101400.00;;;;5013280;28;20224;-77
2021/01/03 06:15:52;;;;;;;17.30;8.38;;;;;10.60;101399.00;;;;5003393;28;20193;-77
2021/01/03 06:18:34;;;;;;;21.90;8.35;;;;;10.50;101410.00;;;;5011643;28;20213;-77
2021/01/03 06:21:00;;;;;;;17.55;7.65;;;;;10.60;101411.00;;;;5004194;28;20212;-77
2021/01/03 06:23:35;;;;;;;18.65;8.25;;;;;10.50;101410.00;;;;5012421;28;20203;-77
2021/01/03 06:26:07;;;;;;;16.23;7.68;;;;;10.60;101408.00;;;;5010530;28;20192;-77
2021/01/03 06:28:47;;;;;;;17.45;8.43;;;;;10.50;101412.00;;;;4994707;28;21018;-77
2021/01/03 06:31:50;;;;;;;22.77;9.65;;;;;10.50;101412.00;;;;5014026;28;20311;-77
2021/01/03 06:34:28;;;;;;;18.95;8.73;;;;;10.50;101415.00;;;;5000664;28;20220;-77
2021/01/03 06:36:58;;;;;;;17.60;7.53;;;;;10.60;101421.00;;;;5014056;28;20200;-77
2021/01/03 06:39:45;;;;;;;21.67;9.43;;;;;10.50;101423.00;;;;5014145;28;20192;-77
2021/01/03 06:42:41;;;;;;;17.15;8.10;;;;;10.50;101422.00;;;;5013446;28;20208;-77
2021/01/03 06:45:32;;;;;;;18.08;7.97;;;;;10.50;101428.00;;;;5012748;28;20572;-77
2021/01/03 06:48:50;;;;;;;19.77;8.93;;;;;10.50;101428.00;;;;5014078;28;20247;-77
2021/01/03 06:51:31;;;;;;;18.27;8.98;;;;;10.60;101421.00;;;;5013205;28;20189;-77
2021/01/03 06:54:34;;;;;;;18.17;8.55;;;;;10.50;101426.00;;;;4999536;28;20239;-77
2021/01/03 06:57:39;;;;;;;17.23;7.35;;;;;10.50;101429.00;;;;4994056;28;20213;-77
2021/01/03 07:00:18;;;;;;;17.73;7.93;;;;;10.60;101428.00;;;;5003311;28;20283;-77
2021/01/03 07:02:49;;;;;;;15.80;7.88;;;;;10.60;101423.00;;;;5013791;28;20705;-77
2021/01/03 07:05:17;;;;;;;16.30;8.07;;;;;10.60;101426.00;;;;5005317;28;20197;-77
2021/01/03 07:07:56;;;;;;;18.05;7.82;;;;;10.60;101428.00;;;;5012743;28;20197;-76
2021/01/03 07:10:34;;;;;;;18.83;8.15;;;;;10.60;101422.00;;;;5013178;28;20188;-76
2021/01/03 07:13:01;;;;;;;18.55;8.65;;;;;10.70;101431.00;;;;5001447;28;20220;-77
2021/01/03 07:15:40;;;;;;;18.85;9.13;;;;;10.60;101423.00;;;;5013682;28;20236;-77
2021/01/03 07:18:30;;;;;;;18.98;8.38;;;;;10.60;101431.00;;;;5007419;28;20201;-77
2021/01/03 07:21:13;;;;;;;17.10;8.68;;;;;10.70;101439.00;;;;4998224;28;20569;-77
2021/01/03 07:23:43;;;;;;;16.83;8.82;;;;;10.70;101433.00;;;;5010417;28;20197;-77
2021/01/03 07:26:21;;;;;;;16.48;8.02;;;;;10.60;101440.00;;;;5011068;28;20193;-77
2021/01/03 07:28:51;;;;;;;18.08;9.38;;;;;10.70;101444.00;;;;5012716;28;20244;-77
2021/01/03 07:31:38;;;;;;;17.33;10.18;;;;;10.60;101443.00;;;;5016837;28;20212;-78
2021/01/03 07:34:10;;;;;;;18.15;9.13;;;;;10.70;101443.00;;;;5019760;28;20221;-77
2021/01/03 07:36:45;;;;;;;17.55;8.10;;;;;10.70;101451.00;;;;5006061;28;20201;-77
2021/01/03 07:39:23;;;;;;;19.33;8.90;;;;;10.60;101443.00;;;;5010365;28;20678;-77
2021/01/03 07:42:16;;;;;;;19.88;9.18;;;;;10.60;101453.00;;;;5010020;28;20205;-77
2021/01/03 07:44:43;;;;;;;17.40;8.98;;;;;10.70;101455.00;;;;5010047;28;20205;-77
2021/01/03 07:47:10;;;;;;;19.33;9.02;;;;;10.70;101462.00;;;;5010682;28;20232;-77
2021/01/03 07:49:44;;;;;;;20.50;9.27;;;;;10.70;101460.00;;;;5013212;28;20224;-76
2021/01/03 07:52:37;;;;;;;18.83;9.05;;;;;10.60;101466.00;;;;5006696;28;20264;-77
2021/01/03 07:55:05;;;;;;;20.20;8.90;;;;;10.70;101466.00;;;;5000102;28;20297;-77
2021/01/03 07:57:32;;;;;;;21.00;9.00;;;;;10.70;101470.00;;;;5008960;28;20583;-77
2021/01/03 08:00:00;;;;;;;21.08;8.98;;;;;10.70;101474.00;;;;5010706;28;20201;-77
2021/01/03 08:02:30;;;;;;;19.55;9.88;;;;;10.70;101474.00;;;;5017537;28;20196;-77
2021/01/03 08:05:01;;;;;;;22.08;11.00;;;;;10.70;101483.00;;;;4997926;28;20205;-78
2021/01/03 08:07:28;;;;;;;19.85;9.80;;;;;10.70;101486.00;;;;5003667;28;20204;-77
2021/01/03 08:09:55;;;;;;;19.60;9.55;;;;;10.70;101488.00;;;;5008945;28;20204;-77
2021/01/03 08:12:26;;;;;;;20.83;10.18;;;;;10.70;101485.00;;;;5009903;28;20212;-77
2021/01/03 08:15:01;;;;;;;19.60;9.05;;;;;10.70;101489.00;;;;5009595;28;20631;-77
2021/01/03 08:17:34;;;;;;;19.13;8.73;;;;;10.70;101487.00;;;;5006548;28;20197;-77
2021/01/03 08:20:03;;;;;;;22.73;9.57;;;;;10.70;101493.00;;;;5006894;28;20216;-76
2021/01/03 08:22:31;;;;;;;21.30;9.95;;;;;10.70;101490.00;;;;5009462;28;20201;-76
2021/01/03 08:25:00;;;;;;;18.50;9.32;;;;;10.70;101496.00;;;;5008264;28;20193;-78
2021/01/03 08:27:33;;;;;;;20.25;9.65;;;;;10.70;101489.00;;;;4997889;28;20252;-77
2021/01/03 08:30:04;;;;;;;18.17;8.93;;;;;10.70;101492.00;;;;5008133;28;20193;-76
2021/01/03 08:32:35;;;;;;;20.42;9.98;;;;;10.70;101494.00;;;;5009853;28;20205;-76
2021/01/03 08:35:09;;;;;;;20.77;9.50;;;;;10.70;101504.00;;;;5009472;28;20303;-78
2021/01/03 08:37:40;;;;;;;21.27;10.60;;;;;10.70;101505.00;;;;5008748;28;20189;-76
2021/01/03 08:40:21;;;;;;;23.02;9.98;;;;;10.70;101509.00;;;;5009600;28;20740;-76
2021/01/03 08:42:58;;;;;;;19.60;9.65;;;;;10.70;101505.00;;;;5008588;28;20690;-77
2021/01/03 08:45:30;;;;;;;20.27;9.50;;;;;10.70;101503.00;;;;5009786;28;20192;-77
2021/01/03 08:48:01;;;;;;;19.70;9.75;;;;;10.80;101509.00;;;;5012568;28;20204;-77
2021/01/03 08:50:32;;;;;;;18.35;10.20;;;;;10.80;101513.00;;;;5012895;28;20263;-77
2021/01/03 08:53:02;;;;;;;20.75;9.73;;;;;10.80;101524.00;;;;5009420;28;20208;-76
2021/01/03 08:55:32;;;;;;;22.80;10.70;;;;;10.80;101523.00;;;;5009001;28;20211;-77
2021/01/03 08:58:01;;;;;;;21.02;9.25;;;;;10.90;101510.00;;;;5007315;28;20235;-77
2021/01/03 09:00:32;;;;;;;21.52;9.88;;;;;10.90;101526.00;;;;4995461;28;20202;-76
2021/01/03 09:03:00;;;;;;;19.75;9.80;;;;;10.90;101522.00;;;;5009429;28;20696;-75
2021/01/03 09:05:33;;;;;;;20.33;11.00;;;;;10.90;101520.00;;;;5009170;28;20197;-75
2021/01/03 09:08:00;;;;;;;20.17;10.23;;;;;10.90;101530.00;;;;5004651;28;20284;-76
2021/01/03 09:10:35;;;;;;;22.00;11.05;;;;;10.90;101530.00;;;;5007715;28;20205;-75
2021/01/03 09:13:24;;;;;;;21.80;9.85;;;;;10.90;101532.00;;;;5008537;28;20205;-77
2021/01/03 09:16:16;;;;;;;18.42;8.63;;;;;10.90;101540.00;;;;5006230;28;20197;-76
2021/01/03 09:18:59;;;;;;;19.63;9.57;;;;;11.00;101531.00;;;;5000262;28;20220;-76
2021/01/03 09:21:27;;;;;;;20.10;9.32;;;;;11.00;101546.00;;;;5007635;28;20204;-77
2021/01/03 09:24:01;;;;;;;22.30;10.55;;;;;11.00;101536.00;;;;5009491;28;20681;-77
2021/01/03 09:26:37;;;;;;;17.13;9.00;;;;;11.00;101538.00;;;;5003820;28;20200;-77
2021/01/03 09:29:10;;;;;;;15.50;8.30;;;;;11.10;101547.00;;;;5007597;28;20196;-76
2021/01/03 09:31:40;;;;;;;21.27;10.05;;;;;11.10;101548.00;;;;5018353;28;20205;-76
2021/01/03 09:34:12;;;;;;;19.02;8.88;;;;;11.10;101554.00;;;;4997985;28;20226;-77
2021/01/03 09:36:51;;;;;;;16.75;9.52;;;;;11.10;101550.00;;;;5002371;28;20189;-77
2021/01/03 09:39:40;;;;;;;18.02;10.25;;;;;11.10;101548.00;;;;5000055;28;20201;-77
2021/01/03 09:42:48;;;;;;;17.33;9.60;;;;;11.10;101549.00;;;;5008086;28;20710;-76
2021/01/03 09:45:53;;;;;;;15.68;8.38;;;;;11.10;101550.00;;;;5008006;28;20682;-77
2021/01/03 09:48:30;;;;;;;16.42;8.30;;;;;11.20;101554.00;;;;5008186;28;20208;-77
2021/01/03 09:51:19;;;;;;;16.55;8.35;;;;;11.20;101554.00;;;;5004558;28;20222;-76
2021/01/03 09:53:47;;;;;;;14.15;8.05;;;;;11.20;101553.00;;;;5006125;28;20225;-77
2021/01/03 09:56:26;;;;;;;17.80;9.20;;;;;11.20;101559.00;;;;5009692;28;20259;-76
2021/01/03 09:58:53;;;;;;;19.90;9.40;;;;;11.20;101560.00;;;;5028152;28;20282;-76
2021/01/03 10:01:28;;;;;;;16.48;8.40;;;;;11.20;101566.00;;;;5009882;28;20189;-77
2021/01/03 10:03:55;;;;;;;13.63;7.75;;;;;11.20;101560.00;;;;5009327;28;20204;-77
2021/01/03 10:06:24;;;;;;;13.32;7.65;;;;;11.20;101555.00;;;;5006154;28;20205;-77
2021/01/03 10:09:08;;;;;;;16.77;8.10;;;;;11.10;101560.00;;;;5002684;28;20197;-77
2021/01/03 10:11:35;;;;;;;15.68;8.32;;;;;11.20;101564.00;;;;5007104;28;20257;-77
2021/01/03 10:14:04;;;;;;;12.20;6.90;;;;;11.20;101562.00;;;;5008904;28;20225;-76
2021/01/03 10:16:33;;;;;;;13.30;7.63;;;;;11.20;101559.00;;;;5008393;28;20207;-78
2021/01/03 10:18:59;;;;;;;14.75;7.50;;;;;11.20;101560.00;;;;5003387;28;20193;-78
2021/01/03 10:21:35;;;;;;;12.30;6.55;;;;;11.20;101559.00;;;;4997328;28;20666;-77
2021/01/03 10:24:11;;;;;;;11.07;6.38;;;;;11.20;101559.00;;;;5007895;28;20197;-79
2021/01/03 10:26:38;;;;;;;12.18;6.50;;;;;11.20;101560.00;;;;5004687;28;20826;-78
2021/01/03 10:29:05;;;;;;;11.85;7.07;;;;;11.20;101559.00;;;;5008262;28;20197;-77
2021/01/03 10:31:40;;;;;;;10.88;6.13;;;;;11.20;101559.00;;;;5006277;28;20205;-77
2021/01/03 10:34:07;;;;;;;12.65;6.65;;;;;11.30;101558.00;;;;5003419;28;20221;-76
2021/01/03 10:36:34;;;;;;;10.80;6.05;;;;;11.30;101559.00;;;;5000039;28;20193;-77
2021/01/03 10:39:03;;;;;;;11.65;6.55;;;;;11.20;101558.00;;;;5008345;28;20208;-77
2021/01/03 10:41:32;;;;;;;10.85;5.90;;;;;11.30;101556.00;;;;5003425;28;20205;-77
2021/01/03 10:43:59;;;;;;;12.00;6.72;;;;;11.30;101553.00;;;;4988525;28;20202;-77
2021/01/03 10:46:26;;;;;;;13.00;5.90;;;;;11.30;101554.00;;;;4989050;28;20202;-77
2021/01/03 10:48:53;;;;;;;14.02;6.70;;;;;11.30;101546.00;;;;4988965;28;20202;-77
2021/01/03 10:51:29;;;;;;;11.25;6.25;;;;;11.20;101540.00;;;;4988651;28;20213;-77
2021/01/03 10:53:57;;;;;;;9.60;5.63;;;;;11.30;101538.00;;;;4991649;28;20229;-77
2021/01/03 10:56:24;;;;;;;12.35;6.40;;;;;11.30;101531.00;;;;4992632;28;20212;-77
2021/01/03 10:58:51;;;;;;;11.02;5.95;;;;;11.30;101530.00;;;;4992501;28;20609;-77
2021/01/03 11:01:19;;;;;;;10.05;5.60;;;;;11.30;101533.00;;;;4992639;28;20216;-77
2021/01/03 11:03:45;;;;;;;11.90;5.63;;;;;11.30;101528.00;;;;4992226;28;20663;-77
2021/01/03 11:06:12;;;;;;;8.65;5.55;;;;;11.40;101533.00;;;;4992586;28;20222;-77
2021/01/03 11:08:40;;;;;;;8.75;5.18;;;;;11.40;101529.00;;;;4992378;28;20210;-77
2021/01/03 11:11:07;;;;;;;8.27;4.85;;;;;11.40;101531.00;;;;4992038;28;20601;-77
2021/01/03 11:13:35;;;;;;;9.98;5.32;;;;;11.40;101533.00;;;;5005955;28;20221;-76
2021/01/03 11:16:01;;;;;;;8.23;4.70;;;;;11.40;101529.00;;;;5011412;28;20220;-76
2021/01/03 11:18:28;;;;;;;7.07;4.30;;;;;11.40;101530.00;;;;5011954;28;20209;-77
2021/01/03 11:20:55;;;;;;;7.28;4.30;;;;;11.40;101529.00;;;;5011610;28;20260;-77
2021/01/03 11:23:22;;;;;;;8.55;5.13;;;;;11.40;101526.00;;;;5019559;28;20208;-77
2021/01/03 11:25:48;;;;;;;8.23;4.55;;;;;11.40;101529.00;;;;5031601;28;20208;-77
2021/01/03 11:28:15;;;;;;;6.00;3.83;;;;;11.40;101524.00;;;;5031048;28;20196;-76
2021/01/03 11:30:43;;;;;;;7.10;4.15;;;;;11.30;101530.00;;;;5031363;28;20227;-76
2021/01/03 11:33:09;;;;;;;7.72;4.88;;;;;11.30;101524.00;;;;5019648;28;20216;-77
2021/01/03 11:35:36;;;;;;;7.57;4.32;;;;;11.30;101519.00;;;;5011881;28;20205;-77
2021/01/03 11:38:03;;;;;;;7.53;4.40;;;;;11.30;101525.00;;;;5012017;28;20577;-77
2021/01/03 11:40:30;;;;;;;7.53;4.47;;;;;11.30;101520.00;;;;5011437;28;20205;-76
2021/01/03 11:42:58;;;;;;;7.50;4.53;;;;;11.30;101520.00;;;;5010927;28;20259;-77
2021/01/03 11:45:25;;;;;;;9.95;5.05;;;;;11.30;101521.00;;;;5011478;28;20243;-77
2021/01/03 11:47:52;;;;;;;7.80;4.32;;;;;11.30;101517.00;;;;5011131;28;20573;-77
2021/01/03 11:50:22;;;;;;;7.20;4.30;;;;;11.30;101521.00;;;;5010446;28;20208;-77
2021/01/03 11:52:49;;;;;;;7.55;4.72;;;;;11.30;101520.00;;;;5011459;28;20724;-77
2021/01/03 11:55:18;;;;;;;8.15;4.60;;;;;11.30;101513.00;;;;5011012;28;20276;-76
2021/01/03 11:57:45;;;;;;;9.40;5.40;;;;;11.30;101508.00;;;;5010874;28;20235;-77
2021/01/03 12:00:15;;;;;;;9.07;5.03;;;;;11.30;101508.00;;;;5011199;28;20208;-76
2021/01/03 12:02:42;;;;;;;8.73;5.07;;;;;11.30;101515.00;;;;5010780;28;20200;-77
2021/01/03 12:05:16;;;;;;;10.68;4.68;;;;;11.20;101517.00;;;;5010318;28;20197;-77
2021/01/03 12:07:43;;;;;;;10.02;5.10;;;;;11.30;101518.00;;;;5010308;28;20678;-76
2021/01/03 12:10:10;;;;;;;9.20;4.95;;;;;11.30;101518.00;;;;5010499;28;20196;-76
2021/01/03 12:12:37;;;;;;;8.20;4.68;;;;;11.30;101512.00;;;;5010240;28;20221;-77
2021/01/03 12:15:06;;;;;;;9.00;4.80;;;;;11.20;101507.00;;;;5010270;28;20250;-76
2021/01/03 12:17:33;;;;;;;9.38;5.30;;;;;11.30;101513.00;;;;5010273;28;20201;-76
2021/01/03 12:19:59;;;;;;;9.32;5.60;;;;;11.30;101511.00;;;;5010611;28;20691;-76